sensor_id;sensor_type;location;lat;lon;timestamp;temperature;humidity
13310;DHT22;6723;48.256;16.402;2023-10-31T00:00:24;16.70;99.90
13310;DHT22;6723;48.256;16.402;2023-10-31T00:02:50;16.80;99.90
13310;DHT22;6723;48.256;16.402;2023-10-31T00:05:16;16.80;99.90
13310;DHT22;6723;48.256;16.402;2023-10-31T00:07:42;16.90;99.90
13310;DHT22;6723;48.256;16.402;2023-10-31T00:10:08;16.90;99.90
13310;DHT22;6723;48.256;16.402;2023-10-31T00:12:34;16.90;99.90
13310;DHT22;6723;48.256;16.402;2023-10-31T00:15:00;16.90;99.90
13310;DHT22;6723;48.256;16.402;2023-10-31T00:17:26;17.00;99.90
13310;DHT22;6723;48.256;16.402;2023-10-31T00:19:52;16.90;99.90
13310;DHT22;6723;48.256;16.402;2023-10-31T00:22:18;17.00;99.90
13310;DHT22;6723;48.256;16.402;2023-10-31T00:24:45;17.00;99.90
13310;DHT22;6723;48.256;16.402;2023-10-31T00:27:11;17.00;99.90
13310;DHT22;6723;48.256;16.402;2023-10-31T00:29:37;17.00;99.90
13310;DHT22;6723;48.256;16.402;2023-10-31T00:32:03;17.00;99.90
13310;DHT22;6723;48.256;16.402;2023-10-31T00:34:29;17.00;99.90
13310;DHT22;6723;48.256;16.402;2023-10-31T00:36:54;17.00;99.90
13310;DHT22;6723;48.256;16.402;2023-10-31T00:39:20;17.00;99.90
13310;DHT22;6723;48.256;16.402;2023-10-31T00:41:47;16.90;99.90
13310;DHT22;6723;48.256;16.402;2023-10-31T00:44:13;16.90;99.90
13310;DHT22;6723;48.256;16.402;2023-10-31T00:46:39;16.90;99.90
13310;DHT22;6723;48.256;16.402;2023-10-31T00:49:05;16.90;99.90
13310;DHT22;6723;48.256;16.402;2023-10-31T00:51:31;16.80;99.90
13310;DHT22;6723;48.256;16.402;2023-10-31T00:53:57;16.90;99.90
13310;DHT22;6723;48.256;16.402;2023-10-31T00:56:23;16.80;99.90
13310;DHT22;6723;48.256;16.402;2023-10-31T00:58:49;16.70;99.90
13310;DHT22;6723;48.256;16.402;2023-10-31T01:01:15;16.60;99.90
13310;DHT22;6723;48.256;16.402;2023-10-31T01:03:41;16.60;99.90
13310;DHT22;6723;48.256;16.402;2023-10-31T01:06:08;16.50;99.90
13310;DHT22;6723;48.256;16.402;2023-10-31T01:08:34;16.50;99.90
13310;DHT22;6723;48.256;16.402;2023-10-31T01:11:00;16.60;99.90
13310;DHT22;6723;48.256;16.402;2023-10-31T01:13:26;16.60;99.90
13310;DHT22;6723;48.256;16.402;2023-10-31T01:15:52;16.60;99.90
13310;DHT22;6723;48.256;16.402;2023-10-31T01:18:17;16.70;99.90
13310;DHT22;6723;48.256;16.402;2023-10-31T01:20:43;16.70;99.90
13310;DHT22;6723;48.256;16.402;2023-10-31T01:23:09;16.70;99.90
13310;DHT22;6723;48.256;16.402;2023-10-31T01:25:35;16.80;99.90
13310;DHT22;6723;48.256;16.402;2023-10-31T01:28:00;16.70;99.90
13310;DHT22;6723;48.256;16.402;2023-10-31T01:30:26;16.70;99.90
13310;DHT22;6723;48.256;16.402;2023-10-31T01:32:52;16.70;99.90
13310;DHT22;6723;48.256;16.402;2023-10-31T01:35:18;16.70;99.90
13310;DHT22;6723;48.256;16.402;2023-10-31T01:37:43;16.70;99.90
13310;DHT22;6723;48.256;16.402;2023-10-31T01:40:12;16.60;99.90
13310;DHT22;6723;48.256;16.402;2023-10-31T01:42:38;16.60;99.90
13310;DHT22;6723;48.256;16.402;2023-10-31T01:45:05;16.50;99.90
13310;DHT22;6723;48.256;16.402;2023-10-31T01:47:32;16.60;99.90
13310;DHT22;6723;48.256;16.402;2023-10-31T01:49:59;16.50;99.90
13310;DHT22;6723;48.256;16.402;2023-10-31T01:52:25;16.60;99.90
13310;DHT22;6723;48.256;16.402;2023-10-31T01:54:52;16.60;99.90
13310;DHT22;6723;48.256;16.402;2023-10-31T01:57:21;16.70;99.90
13310;DHT22;6723;48.256;16.402;2023-10-31T01:59:48;16.70;99.90
13310;DHT22;6723;48.256;16.402;2023-10-31T02:02:15;16.80;99.90
13310;DHT22;6723;48.256;16.402;2023-10-31T02:04:42;16.90;99.90
13310;DHT22;6723;48.256;16.402;2023-10-31T02:07:07;16.80;99.90
13310;DHT22;6723;48.256;16.402;2023-10-31T02:09:33;16.90;99.90
13310;DHT22;6723;48.256;16.402;2023-10-31T02:11:59;17.00;99.90
13310;DHT22;6723;48.256;16.402;2023-10-31T02:14:25;16.90;99.90
13310;DHT22;6723;48.256;16.402;2023-10-31T02:16:51;16.90;99.90
13310;DHT22;6723;48.256;16.402;2023-10-31T02:19:20;16.90;99.90
13310;DHT22;6723;48.256;16.402;2023-10-31T02:21:46;16.90;99.90
13310;DHT22;6723;48.256;16.402;2023-10-31T02:24:12;16.90;99.90
13310;DHT22;6723;48.256;16.402;2023-10-31T02:26:38;16.90;99.90
13310;DHT22;6723;48.256;16.402;2023-10-31T02:29:04;16.90;99.90
13310;DHT22;6723;48.256;16.402;2023-10-31T02:31:30;16.80;99.90
13310;DHT22;6723;48.256;16.402;2023-10-31T02:33:56;16.80;99.90
13310;DHT22;6723;48.256;16.402;2023-10-31T02:36:22;16.70;99.90
13310;DHT22;6723;48.256;16.402;2023-10-31T02:38:49;16.70;99.90
13310;DHT22;6723;48.256;16.402;2023-10-31T02:41:15;16.70;99.90
13310;DHT22;6723;48.256;16.402;2023-10-31T02:43:42;16.80;99.90
13310;DHT22;6723;48.256;16.402;2023-10-31T02:46:08;16.70;99.90
13310;DHT22;6723;48.256;16.402;2023-10-31T02:48:36;16.60;99.90
13310;DHT22;6723;48.256;16.402;2023-10-31T02:51:06;16.60;99.90
13310;DHT22;6723;48.256;16.402;2023-10-31T02:53:33;16.60;99.90
13310;DHT22;6723;48.256;16.402;2023-10-31T02:55:59;16.60;99.90
13310;DHT22;6723;48.256;16.402;2023-10-31T02:58:25;16.60;99.90
13310;DHT22;6723;48.256;16.402;2023-10-31T03:00:51;16.60;99.90
13310;DHT22;6723;48.256;16.402;2023-10-31T03:03:16;16.50;99.90
13310;DHT22;6723;48.256;16.402;2023-10-31T03:05:42;16.50;99.90
13310;DHT22;6723;48.256;16.402;2023-10-31T03:08:08;16.50;99.90
13310;DHT22;6723;48.256;16.402;2023-10-31T03:10:37;16.40;99.90
13310;DHT22;6723;48.256;16.402;2023-10-31T03:13:03;16.40;99.90
13310;DHT22;6723;48.256;16.402;2023-10-31T03:15:29;16.40;99.90
13310;DHT22;6723;48.256;16.402;2023-10-31T03:17:55;16.30;99.90
13310;DHT22;6723;48.256;16.402;2023-10-31T03:20:21;16.20;99.90
13310;DHT22;6723;48.256;16.402;2023-10-31T03:22:46;16.10;99.90
13310;DHT22;6723;48.256;16.402;2023-10-31T03:25:12;16.20;99.90
13310;DHT22;6723;48.256;16.402;2023-10-31T03:27:38;16.20;99.90
13310;DHT22;6723;48.256;16.402;2023-10-31T03:30:04;16.20;99.90
13310;DHT22;6723;48.256;16.402;2023-10-31T03:32:31;16.20;99.90
13310;DHT22;6723;48.256;16.402;2023-10-31T03:34:56;16.20;99.90
13310;DHT22;6723;48.256;16.402;2023-10-31T03:37:22;16.10;99.90
13310;DHT22;6723;48.256;16.402;2023-10-31T03:39:48;16.10;99.90
13310;DHT22;6723;48.256;16.402;2023-10-31T03:42:14;16.00;99.90
13310;DHT22;6723;48.256;16.402;2023-10-31T03:44:39;16.00;99.90
13310;DHT22;6723;48.256;16.402;2023-10-31T03:47:05;15.90;99.90
13310;DHT22;6723;48.256;16.402;2023-10-31T03:49:31;15.80;99.90
13310;DHT22;6723;48.256;16.402;2023-10-31T03:51:57;15.80;99.90
13310;DHT22;6723;48.256;16.402;2023-10-31T03:54:22;15.70;99.90
13310;DHT22;6723;48.256;16.402;2023-10-31T03:56:48;15.70;99.90
13310;DHT22;6723;48.256;16.402;2023-10-31T03:59:14;15.70;99.90
13310;DHT22;6723;48.256;16.402;2023-10-31T04:01:40;15.60;99.90
13310;DHT22;6723;48.256;16.402;2023-10-31T04:04:06;15.60;99.90
13310;DHT22;6723;48.256;16.402;2023-10-31T04:06:32;15.60;99.90
13310;DHT22;6723;48.256;16.402;2023-10-31T04:08:58;15.50;99.90
13310;DHT22;6723;48.256;16.402;2023-10-31T04:11:23;15.50;99.90
13310;DHT22;6723;48.256;16.402;2023-10-31T04:13:49;15.40;99.90
13310;DHT22;6723;48.256;16.402;2023-10-31T04:16:16;15.40;99.90
13310;DHT22;6723;48.256;16.402;2023-10-31T04:18:42;15.40;99.90
13310;DHT22;6723;48.256;16.402;2023-10-31T04:21:08;15.40;99.90
13310;DHT22;6723;48.256;16.402;2023-10-31T04:23:33;15.40;99.90
13310;DHT22;6723;48.256;16.402;2023-10-31T04:25:59;15.40;99.90
13310;DHT22;6723;48.256;16.402;2023-10-31T04:28:25;15.40;99.90
13310;DHT22;6723;48.256;16.402;2023-10-31T04:30:51;15.40;99.90
13310;DHT22;6723;48.256;16.402;2023-10-31T04:33:16;15.40;99.90
13310;DHT22;6723;48.256;16.402;2023-10-31T04:35:42;15.30;99.90
13310;DHT22;6723;48.256;16.402;2023-10-31T04:38:08;15.30;99.90
13310;DHT22;6723;48.256;16.402;2023-10-31T04:40:34;15.30;99.90
13310;DHT22;6723;48.256;16.402;2023-10-31T04:43:00;15.30;99.90
13310;DHT22;6723;48.256;16.402;2023-10-31T04:45:25;15.40;99.90
13310;DHT22;6723;48.256;16.402;2023-10-31T04:47:51;15.30;99.90
13310;DHT22;6723;48.256;16.402;2023-10-31T04:50:17;15.30;99.90
13310;DHT22;6723;48.256;16.402;2023-10-31T04:52:43;15.30;99.90
13310;DHT22;6723;48.256;16.402;2023-10-31T04:55:09;15.30;99.90
13310;DHT22;6723;48.256;16.402;2023-10-31T04:57:35;15.30;99.90
13310;DHT22;6723;48.256;16.402;2023-10-31T05:00:01;15.30;99.90
13310;DHT22;6723;48.256;16.402;2023-10-31T05:02:29;15.30;99.90
13310;DHT22;6723;48.256;16.402;2023-10-31T05:04:54;15.30;99.90
13310;DHT22;6723;48.256;16.402;2023-10-31T05:07:20;15.30;99.90
13310;DHT22;6723;48.256;16.402;2023-10-31T05:09:46;15.30;99.90
13310;DHT22;6723;48.256;16.402;2023-10-31T05:12:12;15.30;99.90
13310;DHT22;6723;48.256;16.402;2023-10-31T05:14:37;15.30;99.90
13310;DHT22;6723;48.256;16.402;2023-10-31T05:17:05;15.30;99.90
13310;DHT22;6723;48.256;16.402;2023-10-31T05:19:31;15.30;99.90
13310;DHT22;6723;48.256;16.402;2023-10-31T05:21:57;15.30;99.90
13310;DHT22;6723;48.256;16.402;2023-10-31T05:24:22;15.30;99.90
13310;DHT22;6723;48.256;16.402;2023-10-31T05:26:48;15.20;99.90
13310;DHT22;6723;48.256;16.402;2023-10-31T05:29:14;15.20;99.90
13310;DHT22;6723;48.256;16.402;2023-10-31T05:31:40;15.10;99.90
13310;DHT22;6723;48.256;16.402;2023-10-31T05:34:07;15.10;99.90
13310;DHT22;6723;48.256;16.402;2023-10-31T05:36:33;15.00;99.90
13310;DHT22;6723;48.256;16.402;2023-10-31T05:38:59;15.00;99.90
13310;DHT22;6723;48.256;16.402;2023-10-31T05:41:25;15.00;99.90
13310;DHT22;6723;48.256;16.402;2023-10-31T05:43:50;14.90;99.90
13310;DHT22;6723;48.256;16.402;2023-10-31T05:46:16;14.90;99.90
13310;DHT22;6723;48.256;16.402;2023-10-31T05:48:45;14.90;99.90
13310;DHT22;6723;48.256;16.402;2023-10-31T05:51:16;14.90;99.90
13310;DHT22;6723;48.256;16.402;2023-10-31T05:53:45;14.80;99.90
13310;DHT22;6723;48.256;16.402;2023-10-31T05:56:15;14.80;99.90
13310;DHT22;6723;48.256;16.402;2023-10-31T05:58:42;14.90;99.90
13310;DHT22;6723;48.256;16.402;2023-10-31T06:01:08;14.80;99.90
13310;DHT22;6723;48.256;16.402;2023-10-31T06:03:34;14.80;99.90
13310;DHT22;6723;48.256;16.402;2023-10-31T06:06:00;14.70;99.90
13310;DHT22;6723;48.256;16.402;2023-10-31T06:08:26;14.70;99.90
13310;DHT22;6723;48.256;16.402;2023-10-31T06:10:57;14.70;99.90
13310;DHT22;6723;48.256;16.402;2023-10-31T06:13:24;14.70;99.90
13310;DHT22;6723;48.256;16.402;2023-10-31T06:15:54;14.70;99.90
13310;DHT22;6723;48.256;16.402;2023-10-31T06:18:20;14.70;99.90
13310;DHT22;6723;48.256;16.402;2023-10-31T06:20:46;14.70;99.90
13310;DHT22;6723;48.256;16.402;2023-10-31T06:23:12;14.60;99.90
13310;DHT22;6723;48.256;16.402;2023-10-31T06:25:38;14.60;99.90
13310;DHT22;6723;48.256;16.402;2023-10-31T06:28:04;14.60;99.90
13310;DHT22;6723;48.256;16.402;2023-10-31T06:30:30;14.60;99.90
13310;DHT22;6723;48.256;16.402;2023-10-31T06:32:55;14.60;99.90
13310;DHT22;6723;48.256;16.402;2023-10-31T06:35:23;14.50;99.90
13310;DHT22;6723;48.256;16.402;2023-10-31T06:37:56;14.50;99.90
13310;DHT22;6723;48.256;16.402;2023-10-31T06:40:25;14.50;99.90
13310;DHT22;6723;48.256;16.402;2023-10-31T06:42:51;14.50;99.90
13310;DHT22;6723;48.256;16.402;2023-10-31T06:45:17;14.50;99.90
13310;DHT22;6723;48.256;16.402;2023-10-31T06:47:45;14.50;99.90
13310;DHT22;6723;48.256;16.402;2023-10-31T06:50:14;14.40;99.90
13310;DHT22;6723;48.256;16.402;2023-10-31T06:52:40;14.40;99.90
13310;DHT22;6723;48.256;16.402;2023-10-31T06:55:06;14.30;99.90
13310;DHT22;6723;48.256;16.402;2023-10-31T06:57:32;14.30;99.90
13310;DHT22;6723;48.256;16.402;2023-10-31T07:00:00;14.30;99.90
13310;DHT22;6723;48.256;16.402;2023-10-31T07:02:28;14.20;99.90
13310;DHT22;6723;48.256;16.402;2023-10-31T07:04:54;14.20;99.90
13310;DHT22;6723;48.256;16.402;2023-10-31T07:07:20;14.20;99.90
13310;DHT22;6723;48.256;16.402;2023-10-31T07:09:46;14.20;99.90
13310;DHT22;6723;48.256;16.402;2023-10-31T07:12:12;14.20;99.90
13310;DHT22;6723;48.256;16.402;2023-10-31T07:14:38;14.30;99.90
13310;DHT22;6723;48.256;16.402;2023-10-31T07:17:06;14.20;99.90
13310;DHT22;6723;48.256;16.402;2023-10-31T07:19:32;14.10;99.90
13310;DHT22;6723;48.256;16.402;2023-10-31T07:21:58;14.10;99.90
13310;DHT22;6723;48.256;16.402;2023-10-31T07:24:24;14.10;99.90
13310;DHT22;6723;48.256;16.402;2023-10-31T07:26:52;14.10;99.90
13310;DHT22;6723;48.256;16.402;2023-10-31T07:29:30;14.10;99.90
13310;DHT22;6723;48.256;16.402;2023-10-31T07:31:55;14.20;99.90
13310;DHT22;6723;48.256;16.402;2023-10-31T07:34:22;14.20;99.90
13310;DHT22;6723;48.256;16.402;2023-10-31T07:36:47;14.10;99.90
13310;DHT22;6723;48.256;16.402;2023-10-31T07:39:13;14.10;99.90
13310;DHT22;6723;48.256;16.402;2023-10-31T07:41:40;14.00;99.90
13310;DHT22;6723;48.256;16.402;2023-10-31T07:44:06;14.10;99.90
13310;DHT22;6723;48.256;16.402;2023-10-31T07:46:32;14.10;99.90
13310;DHT22;6723;48.256;16.402;2023-10-31T07:48:57;14.10;99.90
13310;DHT22;6723;48.256;16.402;2023-10-31T07:51:23;14.10;99.90
13310;DHT22;6723;48.256;16.402;2023-10-31T07:53:49;14.10;99.90
13310;DHT22;6723;48.256;16.402;2023-10-31T07:56:16;14.10;99.90
13310;DHT22;6723;48.256;16.402;2023-10-31T07:58:42;14.10;99.90
13310;DHT22;6723;48.256;16.402;2023-10-31T08:01:08;14.10;99.90
13310;DHT22;6723;48.256;16.402;2023-10-31T08:03:39;14.10;99.90
13310;DHT22;6723;48.256;16.402;2023-10-31T08:06:06;14.20;99.90
13310;DHT22;6723;48.256;16.402;2023-10-31T08:08:33;14.20;99.90
13310;DHT22;6723;48.256;16.402;2023-10-31T08:11:00;14.30;99.90
13310;DHT22;6723;48.256;16.402;2023-10-31T08:13:26;14.20;99.90
13310;DHT22;6723;48.256;16.402;2023-10-31T08:15:51;14.10;99.90
13310;DHT22;6723;48.256;16.402;2023-10-31T08:18:17;14.10;99.90
13310;DHT22;6723;48.256;16.402;2023-10-31T08:20:43;14.20;99.90
13310;DHT22;6723;48.256;16.402;2023-10-31T08:23:12;14.20;99.90
13310;DHT22;6723;48.256;16.402;2023-10-31T08:25:37;14.20;99.90
13310;DHT22;6723;48.256;16.402;2023-10-31T08:28:03;14.10;99.90
13310;DHT22;6723;48.256;16.402;2023-10-31T08:30:29;14.20;99.90
13310;DHT22;6723;48.256;16.402;2023-10-31T08:32:55;14.20;99.90
13310;DHT22;6723;48.256;16.402;2023-10-31T08:35:21;14.10;99.90
13310;DHT22;6723;48.256;16.402;2023-10-31T08:37:47;14.10;99.90
13310;DHT22;6723;48.256;16.402;2023-10-31T08:40:13;14.20;99.90
13310;DHT22;6723;48.256;16.402;2023-10-31T08:42:38;14.20;99.90
13310;DHT22;6723;48.256;16.402;2023-10-31T08:45:05;14.20;99.90
13310;DHT22;6723;48.256;16.402;2023-10-31T08:47:31;14.20;99.90
13310;DHT22;6723;48.256;16.402;2023-10-31T08:49:57;14.20;99.90
13310;DHT22;6723;48.256;16.402;2023-10-31T08:52:22;14.10;99.90
13310;DHT22;6723;48.256;16.402;2023-10-31T08:54:48;14.10;99.90
13310;DHT22;6723;48.256;16.402;2023-10-31T08:57:14;14.10;99.90
13310;DHT22;6723;48.256;16.402;2023-10-31T08:59:40;14.10;99.90
13310;DHT22;6723;48.256;16.402;2023-10-31T09:02:06;14.10;99.90
13310;DHT22;6723;48.256;16.402;2023-10-31T09:04:32;14.10;99.90
13310;DHT22;6723;48.256;16.402;2023-10-31T09:06:57;14.10;99.90
13310;DHT22;6723;48.256;16.402;2023-10-31T09:09:23;14.10;99.90
13310;DHT22;6723;48.256;16.402;2023-10-31T09:11:49;14.10;99.90
13310;DHT22;6723;48.256;16.402;2023-10-31T09:14:14;14.10;99.90
13310;DHT22;6723;48.256;16.402;2023-10-31T09:16:40;14.10;99.90
13310;DHT22;6723;48.256;16.402;2023-10-31T09:19:06;14.10;99.90
13310;DHT22;6723;48.256;16.402;2023-10-31T09:21:32;14.10;99.90
13310;DHT22;6723;48.256;16.402;2023-10-31T09:23:57;14.20;99.90
13310;DHT22;6723;48.256;16.402;2023-10-31T09:26:23;14.10;99.90
13310;DHT22;6723;48.256;16.402;2023-10-31T09:28:49;14.10;99.90
13310;DHT22;6723;48.256;16.402;2023-10-31T09:31:19;14.20;99.90
13310;DHT22;6723;48.256;16.402;2023-10-31T09:33:48;14.10;99.90
13310;DHT22;6723;48.256;16.402;2023-10-31T09:36:14;14.00;99.90
13310;DHT22;6723;48.256;16.402;2023-10-31T09:38:40;14.10;99.90
13310;DHT22;6723;48.256;16.402;2023-10-31T09:41:06;14.10;99.90
13310;DHT22;6723;48.256;16.402;2023-10-31T09:43:32;14.00;99.90
13310;DHT22;6723;48.256;16.402;2023-10-31T09:45:59;14.00;99.90
13310;DHT22;6723;48.256;16.402;2023-10-31T09:48:29;14.00;99.90
13310;DHT22;6723;48.256;16.402;2023-10-31T09:50:55;14.00;99.90
13310;DHT22;6723;48.256;16.402;2023-10-31T09:53:23;14.00;99.90
13310;DHT22;6723;48.256;16.402;2023-10-31T09:55:50;14.00;99.90
13310;DHT22;6723;48.256;16.402;2023-10-31T09:58:17;13.90;99.90
13310;DHT22;6723;48.256;16.402;2023-10-31T10:00:42;13.80;99.90
13310;DHT22;6723;48.256;16.402;2023-10-31T10:03:09;13.80;99.90
13310;DHT22;6723;48.256;16.402;2023-10-31T10:05:35;13.60;99.90
13310;DHT22;6723;48.256;16.402;2023-10-31T10:08:03;13.50;99.90
13310;DHT22;6723;48.256;16.402;2023-10-31T10:10:29;13.30;99.90
13310;DHT22;6723;48.256;16.402;2023-10-31T10:12:55;13.20;99.90
13310;DHT22;6723;48.256;16.402;2023-10-31T10:15:21;13.20;99.90
13310;DHT22;6723;48.256;16.402;2023-10-31T10:17:51;13.10;99.90
13310;DHT22;6723;48.256;16.402;2023-10-31T10:20:18;13.00;99.90
13310;DHT22;6723;48.256;16.402;2023-10-31T10:22:44;12.80;99.90
13310;DHT22;6723;48.256;16.402;2023-10-31T10:25:15;12.80;99.90
13310;DHT22;6723;48.256;16.402;2023-10-31T10:27:43;12.60;99.90
13310;DHT22;6723;48.256;16.402;2023-10-31T10:30:10;12.50;99.90
13310;DHT22;6723;48.256;16.402;2023-10-31T10:32:36;12.40;99.90
13310;DHT22;6723;48.256;16.402;2023-10-31T10:35:02;12.20;99.90
13310;DHT22;6723;48.256;16.402;2023-10-31T10:37:29;12.20;99.90
13310;DHT22;6723;48.256;16.402;2023-10-31T10:39:56;12.10;99.90
13310;DHT22;6723;48.256;16.402;2023-10-31T10:42:45;12.00;99.90
13310;DHT22;6723;48.256;16.402;2023-10-31T10:45:14;11.90;99.90
13310;DHT22;6723;48.256;16.402;2023-10-31T10:47:47;11.80;99.90
13310;DHT22;6723;48.256;16.402;2023-10-31T10:50:15;11.70;99.90
13310;DHT22;6723;48.256;16.402;2023-10-31T10:55:25;11.60;99.90
13310;DHT22;6723;48.256;16.402;2023-10-31T11:00:17;11.50;99.90
13310;DHT22;6723;48.256;16.402;2023-10-31T11:02:46;11.40;99.90
13310;DHT22;6723;48.256;16.402;2023-10-31T11:05:12;11.40;99.90
13310;DHT22;6723;48.256;16.402;2023-10-31T11:07:40;11.30;99.90
13310;DHT22;6723;48.256;16.402;2023-10-31T11:10:07;11.30;99.90
13310;DHT22;6723;48.256;16.402;2023-10-31T11:12:34;11.20;99.90
13310;DHT22;6723;48.256;16.402;2023-10-31T11:15:02;11.10;99.90
13310;DHT22;6723;48.256;16.402;2023-10-31T11:17:31;11.10;99.90
13310;DHT22;6723;48.256;16.402;2023-10-31T11:20:00;11.00;99.90
13310;DHT22;6723;48.256;16.402;2023-10-31T11:22:44;11.10;99.90
13310;DHT22;6723;48.256;16.402;2023-10-31T11:25:14;11.00;99.90
13310;DHT22;6723;48.256;16.402;2023-10-31T11:27:39;11.00;99.90
13310;DHT22;6723;48.256;16.402;2023-10-31T11:32:55;10.90;99.90
13310;DHT22;6723;48.256;16.402;2023-10-31T11:35:23;10.90;99.90
13310;DHT22;6723;48.256;16.402;2023-10-31T11:38:02;10.90;99.90
13310;DHT22;6723;48.256;16.402;2023-10-31T11:41:19;10.90;99.90
13310;DHT22;6723;48.256;16.402;2023-10-31T11:43:20;10.90;99.90
13310;DHT22;6723;48.256;16.402;2023-10-31T11:45:47;10.80;99.90
13310;DHT22;6723;48.256;16.402;2023-10-31T11:48:15;10.80;99.90
13310;DHT22;6723;48.256;16.402;2023-10-31T11:50:41;10.80;99.90
13310;DHT22;6723;48.256;16.402;2023-10-31T11:53:12;10.80;99.90
13310;DHT22;6723;48.256;16.402;2023-10-31T11:55:46;10.80;99.90
13310;DHT22;6723;48.256;16.402;2023-10-31T11:58:22;10.80;99.90
13310;DHT22;6723;48.256;16.402;2023-10-31T12:00:51;10.80;99.90
13310;DHT22;6723;48.256;16.402;2023-10-31T12:03:18;10.90;99.90
13310;DHT22;6723;48.256;16.402;2023-10-31T12:08:28;11.00;99.90
13310;DHT22;6723;48.256;16.402;2023-10-31T12:11:06;11.00;99.90
13310;DHT22;6723;48.256;16.402;2023-10-31T12:13:33;11.00;99.90
13310;DHT22;6723;48.256;16.402;2023-10-31T12:15:59;11.00;99.90
13310;DHT22;6723;48.256;16.402;2023-10-31T12:18:30;11.00;99.90
13310;DHT22;6723;48.256;16.402;2023-10-31T12:20:56;11.00;99.90
13310;DHT22;6723;48.256;16.402;2023-10-31T12:23:22;11.00;99.90
13310;DHT22;6723;48.256;16.402;2023-10-31T12:25:49;11.00;99.90
13310;DHT22;6723;48.256;16.402;2023-10-31T12:28:18;11.10;99.90
13310;DHT22;6723;48.256;16.402;2023-10-31T12:30:46;11.00;99.90
13310;DHT22;6723;48.256;16.402;2023-10-31T12:33:12;11.00;99.90
13310;DHT22;6723;48.256;16.402;2023-10-31T12:35:39;11.10;99.90
13310;DHT22;6723;48.256;16.402;2023-10-31T12:38:06;11.10;99.90
13310;DHT22;6723;48.256;16.402;2023-10-31T12:40:33;11.00;99.90
13310;DHT22;6723;48.256;16.402;2023-10-31T12:42:59;11.00;99.90
13310;DHT22;6723;48.256;16.402;2023-10-31T12:45:27;11.00;99.90
13310;DHT22;6723;48.256;16.402;2023-10-31T12:48:03;11.00;99.90
13310;DHT22;6723;48.256;16.402;2023-10-31T12:50:32;10.90;99.90
13310;DHT22;6723;48.256;16.402;2023-10-31T12:52:58;10.90;99.90
13310;DHT22;6723;48.256;16.402;2023-10-31T12:55:29;10.90;99.90
13310;DHT22;6723;48.256;16.402;2023-10-31T12:57:56;11.00;99.90
13310;DHT22;6723;48.256;16.402;2023-10-31T13:00:29;11.00;99.90
13310;DHT22;6723;48.256;16.402;2023-10-31T13:03:05;11.10;99.90
13310;DHT22;6723;48.256;16.402;2023-10-31T13:05:31;11.10;99.90
13310;DHT22;6723;48.256;16.402;2023-10-31T13:07:59;11.10;99.90
13310;DHT22;6723;48.256;16.402;2023-10-31T13:10:27;11.10;99.90
13310;DHT22;6723;48.256;16.402;2023-10-31T13:12:53;11.20;99.90
13310;DHT22;6723;48.256;16.402;2023-10-31T13:15:20;11.30;99.90
13310;DHT22;6723;48.256;16.402;2023-10-31T13:17:48;11.30;99.90
13310;DHT22;6723;48.256;16.402;2023-10-31T13:20:15;11.20;99.90
13310;DHT22;6723;48.256;16.402;2023-10-31T13:22:42;11.20;99.90
13310;DHT22;6723;48.256;16.402;2023-10-31T13:25:09;11.20;99.90
13310;DHT22;6723;48.256;16.402;2023-10-31T13:27:45;11.20;99.90
13310;DHT22;6723;48.256;16.402;2023-10-31T13:30:16;11.20;99.90
13310;DHT22;6723;48.256;16.402;2023-10-31T13:32:43;11.10;99.90
13310;DHT22;6723;48.256;16.402;2023-10-31T13:35:09;11.10;99.90
13310;DHT22;6723;48.256;16.402;2023-10-31T13:37:36;11.10;99.90
13310;DHT22;6723;48.256;16.402;2023-10-31T13:40:03;11.10;99.90
13310;DHT22;6723;48.256;16.402;2023-10-31T13:42:29;11.10;99.90
13310;DHT22;6723;48.256;16.402;2023-10-31T13:44:55;11.00;99.90
13310;DHT22;6723;48.256;16.402;2023-10-31T13:47:21;11.00;99.90
13310;DHT22;6723;48.256;16.402;2023-10-31T13:49:47;11.00;99.90
13310;DHT22;6723;48.256;16.402;2023-10-31T13:52:14;11.10;99.90
13310;DHT22;6723;48.256;16.402;2023-10-31T13:54:39;11.10;99.90
13310;DHT22;6723;48.256;16.402;2023-10-31T13:57:05;11.10;99.90
13310;DHT22;6723;48.256;16.402;2023-10-31T13:59:31;11.10;99.90
13310;DHT22;6723;48.256;16.402;2023-10-31T14:01:57;11.00;99.90
13310;DHT22;6723;48.256;16.402;2023-10-31T14:04:23;11.00;99.90
13310;DHT22;6723;48.256;16.402;2023-10-31T14:06:49;11.00;99.90
13310;DHT22;6723;48.256;16.402;2023-10-31T14:09:15;11.00;99.90
13310;DHT22;6723;48.256;16.402;2023-10-31T14:11:42;11.00;99.90
13310;DHT22;6723;48.256;16.402;2023-10-31T14:14:08;11.10;99.90
13310;DHT22;6723;48.256;16.402;2023-10-31T14:16:46;11.10;99.90
13310;DHT22;6723;48.256;16.402;2023-10-31T14:19:13;11.10;99.90
13310;DHT22;6723;48.256;16.402;2023-10-31T14:21:40;11.10;99.90
13310;DHT22;6723;48.256;16.402;2023-10-31T14:24:06;11.10;99.90
13310;DHT22;6723;48.256;16.402;2023-10-31T14:26:34;11.10;99.90
13310;DHT22;6723;48.256;16.402;2023-10-31T14:29:00;11.10;99.90
13310;DHT22;6723;48.256;16.402;2023-10-31T14:31:26;11.10;99.90
13310;DHT22;6723;48.256;16.402;2023-10-31T14:33:52;11.00;99.90
13310;DHT22;6723;48.256;16.402;2023-10-31T14:36:18;11.10;99.90
13310;DHT22;6723;48.256;16.402;2023-10-31T14:38:44;11.00;99.90
13310;DHT22;6723;48.256;16.402;2023-10-31T14:41:10;11.10;99.90
13310;DHT22;6723;48.256;16.402;2023-10-31T14:43:36;11.10;99.90
13310;DHT22;6723;48.256;16.402;2023-10-31T14:46:03;11.10;99.90
13310;DHT22;6723;48.256;16.402;2023-10-31T14:48:30;11.00;99.90
13310;DHT22;6723;48.256;16.402;2023-10-31T14:50:55;11.00;99.90
13310;DHT22;6723;48.256;16.402;2023-10-31T14:53:23;11.10;99.90
13310;DHT22;6723;48.256;16.402;2023-10-31T14:55:48;11.10;99.90
13310;DHT22;6723;48.256;16.402;2023-10-31T14:58:14;11.10;99.90
13310;DHT22;6723;48.256;16.402;2023-10-31T15:00:40;11.10;99.90
13310;DHT22;6723;48.256;16.402;2023-10-31T15:03:06;11.10;99.90
13310;DHT22;6723;48.256;16.402;2023-10-31T15:05:32;11.10;99.90
13310;DHT22;6723;48.256;16.402;2023-10-31T15:07:59;11.10;99.90
13310;DHT22;6723;48.256;16.402;2023-10-31T15:10:25;11.10;99.90
13310;DHT22;6723;48.256;16.402;2023-10-31T15:12:54;11.00;99.90
13310;DHT22;6723;48.256;16.402;2023-10-31T15:15:20;11.00;99.90
13310;DHT22;6723;48.256;16.402;2023-10-31T15:17:46;11.00;99.90
13310;DHT22;6723;48.256;16.402;2023-10-31T15:20:17;11.00;99.90
13310;DHT22;6723;48.256;16.402;2023-10-31T15:22:43;11.00;99.90
13310;DHT22;6723;48.256;16.402;2023-10-31T15:25:09;11.00;99.90
13310;DHT22;6723;48.256;16.402;2023-10-31T15:27:36;11.00;99.90
13310;DHT22;6723;48.256;16.402;2023-10-31T15:30:03;11.00;99.90
13310;DHT22;6723;48.256;16.402;2023-10-31T15:32:30;10.90;99.90
13310;DHT22;6723;48.256;16.402;2023-10-31T15:34:56;11.00;99.90
13310;DHT22;6723;48.256;16.402;2023-10-31T15:37:22;10.90;99.90